Aviation Digital Data Service (ADDS)

Output produced by TAFs form (1255 UTC 19 December 2014)
found at http://aviationweather.gov/adds/tafs/
 
KDRO 191139Z 1912/2012 04003KT P6SM OVC004 
     TEMPO 1912/1915 FEW004 SCT050 
     FM191500 VRB03KT P6SM SCT050 
     FM192000 22005KT P6SM SKC 
     FM200300 04004KT P6SM BKN200